Time;durP1;ratioP1;P1;durP2;ratioP2;P2;SDS_P1;SDS_P2;PMS_P1;PMS_P2;Temp;Humidity;BMP_temperature;BMP_pressure;BME280_temperature;BME280_humidity;BME280_pressure;Samples;Min_cycle;Max_cycle;Signal;HPM_P1;HPM_P2
2023/04/15 00:00:15;;;;;;;7.97;5.18;;;7.40;99.90;;;;;;12390702;28;20410;-39
2023/04/15 00:06:18;;;;;;;8.77;5.30;;;7.20;99.90;;;;;;12362984;28;20043;-40
2023/04/15 00:12:20;;;;;;;9.43;5.97;;;7.20;99.90;;;;;;12394988;28;20149;-39
2023/04/15 00:18:23;;;;;;;7.28;5.32;;;7.10;99.90;;;;;;12378613;28;20042;-40
2023/04/15 00:24:25;;;;;;;7.50;5.43;;;7.40;99.90;;;;;;12381897;28;20498;-41
2023/04/15 00:30:27;;;;;;;7.82;5.50;;;7.50;99.90;;;;;;12370553;28;20051;-40
2023/04/15 00:36:29;;;;;;;7.75;5.20;;;7.50;99.90;;;;;;12377701;28;20081;-40
2023/04/15 00:42:33;;;;;;;9.05;6.28;;;7.40;99.90;;;;;;12396746;28;20049;-41
2023/04/15 00:48:35;;;;;;;;;;;7.50;99.90;;;;;;12383239;28;20050;-40
2023/04/15 00:54:37;;;;;;;8.65;5.60;;;7.60;99.90;;;;;;12385818;28;19979;-39
2023/04/15 01:00:40;;;;;;;8.60;5.88;;;7.50;99.90;;;;;;12403268;28;20043;-40
2023/04/15 01:06:42;;;;;;;13.55;5.97;;;7.10;99.90;;;;;;12395177;28;20057;-40
2023/04/15 01:12:44;;;;;;;9.38;6.00;;;7.00;99.90;;;;;;12383507;28;20050;-40
2023/04/15 01:18:46;;;;;;;9.15;5.70;;;7.00;99.90;;;;;;12388468;28;20406;-41
2023/04/15 01:25:03;;;;;;;8.00;5.47;;;7.10;99.90;;;;;;12392528;28;20548;-40
2023/04/15 01:31:11;;;;;;;8.23;5.30;;;7.10;99.90;;;;;;12366013;28;20124;-40
2023/04/15 01:37:13;;;;;;;10.00;6.20;;;7.40;99.90;;;;;;12397038;28;20054;-40
2023/04/15 01:43:15;;;;;;;10.60;5.90;;;7.40;99.90;;;;;;12377022;28;20054;-40
2023/04/15 01:49:16;;;;;;;8.07;5.65;;;7.20;99.90;;;;;;12398802;28;20058;-40
2023/04/15 01:55:18;;;;;;;9.65;5.40;;;7.20;99.90;;;;;;12398452;28;20038;-40
2023/04/15 02:01:20;;;;;;;8.38;5.78;;;7.20;99.90;;;;;;12403022;28;20525;-40
2023/04/15 02:07:23;;;;;;;8.40;6.10;;;7.20;99.90;;;;;;12380561;28;20077;-40
2023/04/15 02:13:25;;;;;;;7.38;5.25;;;7.10;99.90;;;;;;12401033;28;20053;-40
2023/04/15 02:19:26;;;;;;;8.00;5.65;;;7.10;99.90;;;;;;12388915;28;20491;-39
2023/04/15 02:25:28;;;;;;;8.82;5.85;;;7.00;99.90;;;;;;12395627;28;20050;-40
2023/04/15 02:31:35;;;;;;;8.95;5.57;;;7.00;99.90;;;;;;12389038;28;20045;-40
2023/04/15 02:37:42;;;;;;;8.52;5.50;;;7.00;99.90;;;;;;12396222;28;20077;-41
2023/04/15 02:43:44;;;;;;;9.75;6.55;;;7.00;99.90;;;;;;12380847;28;20093;-40
2023/04/15 02:49:46;;;;;;;9.85;6.38;;;6.90;99.90;;;;;;12387483;28;20124;-41
2023/04/15 02:55:48;;;;;;;11.63;6.97;;;6.80;99.90;;;;;;12389813;28;20034;-41
2023/04/15 03:01:50;;;;;;;11.23;7.30;;;6.70;99.90;;;;;;12404408;28;20038;-41
2023/04/15 03:07:52;;;;;;;12.07;6.93;;;6.70;99.90;;;;;;12382099;28;20132;-43
2023/04/15 03:13:54;;;;;;;11.10;6.70;;;6.80;99.90;;;;;;12392359;28;20499;-41
2023/04/15 03:19:56;;;;;;;11.48;7.40;;;6.80;99.90;;;;;;12373197;28;20837;-40
2023/04/15 03:26:01;;;;;;;11.45;7.50;;;6.70;99.90;;;;;;12377490;28;20038;-40
2023/04/15 03:32:03;;;;;;;11.27;8.27;;;6.80;99.90;;;;;;12364053;28;20050;-40
2023/04/15 03:38:05;;;;;;;10.68;7.20;;;6.80;99.90;;;;;;12362258;28;20612;-40
2023/04/15 03:44:07;;;;;;;11.30;8.25;;;6.70;99.90;;;;;;12386913;28;20521;-40
2023/04/15 03:50:09;;;;;;;12.43;8.30;;;6.60;99.90;;;;;;12382938;28;20524;-40
2023/04/15 03:56:10;;;;;;;12.63;8.00;;;6.60;99.90;;;;;;12384352;28;20053;-40
2023/04/15 04:02:12;;;;;;;13.70;8.02;;;6.60;99.90;;;;;;12373810;28;20042;-41
2023/04/15 04:08:15;;;;;;;13.75;8.70;;;6.60;99.90;;;;;;12375085;28;20507;-42
2023/04/15 04:14:16;;;;;;;14.55;9.32;;;6.60;99.90;;;;;;12377371;28;20610;-40
2023/04/15 04:20:18;;;;;;;14.77;9.52;;;6.60;99.90;;;;;;12384425;28;20050;-41
2023/04/15 04:26:20;;;;;;;17.27;10.48;;;6.60;99.90;;;;;;12371973;28;20059;-41
2023/04/15 04:32:22;;;;;;;17.27;10.48;;;6.50;99.90;;;;;;12376851;28;20050;-41
2023/04/15 04:38:24;;;;;;;16.77;11.23;;;6.70;99.90;;;;;;12357983;28;20049;-41
2023/04/15 04:44:26;;;;;;;18.08;12.13;;;6.60;99.90;;;;;;12390383;28;20046;-40
2023/04/15 04:50:28;;;;;;;20.23;12.45;;;6.70;99.90;;;;;;12392152;28;20049;-40
2023/04/15 04:56:29;;;;;;;18.98;12.30;;;6.60;99.90;;;;;;12388075;28;20058;-40
2023/04/15 05:02:31;;;;;;;17.17;11.38;;;6.70;99.90;;;;;;12395588;28;20608;-40
2023/04/15 05:08:34;;;;;;;20.70;12.48;;;6.80;99.90;;;;;;12389866;28;20054;-40
2023/04/15 05:14:36;;;;;;;20.15;13.27;;;6.80;99.90;;;;;;12390681;28;20061;-40
2023/04/15 05:20:37;;;;;;;19.75;12.55;;;6.80;99.90;;;;;;12391156;28;20409;-40
2023/04/15 05:26:39;;;;;;;18.27;12.48;;;6.80;99.90;;;;;;12379212;28;20415;-42
2023/04/15 05:32:43;;;;;;;18.47;12.60;;;6.80;99.90;;;;;;12389255;28;20077;-42
2023/04/15 05:38:45;;;;;;;19.00;12.02;;;6.90;99.90;;;;;;12401035;28;20129;-40
2023/04/15 05:44:47;;;;;;;19.48;12.40;;;6.90;99.90;;;;;;12393433;28;20414;-40
2023/04/15 05:50:49;;;;;;;19.98;12.65;;;6.90;99.90;;;;;;12390963;28;20053;-40
2023/04/15 05:56:51;;;;;;;20.17;12.90;;;7.00;99.90;;;;;;12388903;28;20084;-41
2023/04/15 06:02:53;;;;;;;20.10;13.00;;;6.90;99.90;;;;;;12404285;28;20051;-41
2023/04/15 06:08:56;;;;;;;22.48;14.10;;;6.90;99.90;;;;;;12375932;28;20479;-41
2023/04/15 06:14:58;;;;;;;18.35;12.52;;;6.80;99.90;;;;;;12386380;28;20164;-41
2023/04/15 06:21:01;;;;;;;19.50;12.77;;;6.70;99.90;;;;;;12384332;28;20070;-40
2023/04/15 06:27:02;;;;;;;18.65;13.05;;;6.70;99.90;;;;;;12384077;28;20057;-40
2023/04/15 06:33:05;;;;;;;20.23;12.48;;;6.70;99.90;;;;;;12386526;28;20054;-40
2023/04/15 06:39:07;;;;;;;20.58;13.25;;;6.50;99.90;;;;;;12373173;28;20822;-40
2023/04/15 06:45:09;;;;;;;19.60;12.35;;;6.60;99.90;;;;;;12392680;28;20185;-41
2023/04/15 06:51:11;;;;;;;22.02;13.63;;;6.70;99.90;;;;;;12390658;28;20049;-40
2023/04/15 06:57:13;;;;;;;21.85;13.57;;;6.80;99.90;;;;;;12363246;28;20413;-40
2023/04/15 07:03:15;;;;;;;21.00;13.68;;;6.60;99.90;;;;;;12372103;28;20077;-40
2023/04/15 07:09:17;;;;;;;17.95;12.27;;;6.70;99.90;;;;;;12395843;28;20050;-41
2023/04/15 07:15:19;;;;;;;20.38;12.75;;;6.70;99.90;;;;;;12369825;28;20499;-41
2023/04/15 07:21:22;;;;;;;19.88;12.55;;;6.80;99.90;;;;;;12364284;28;20054;-42
2023/04/15 07:27:25;;;;;;;22.50;13.68;;;6.80;99.90;;;;;;12367537;28;20050;-41
2023/04/15 07:33:27;;;;;;;23.88;13.05;;;6.70;99.90;;;;;;12339983;28;20089;-41
2023/04/15 07:39:28;;;;;;;20.48;13.13;;;6.60;99.90;;;;;;12374034;28;20042;-41
2023/04/15 07:45:31;;;;;;;20.50;12.82;;;6.70;99.90;;;;;;12375518;28;20046;-40
2023/04/15 07:51:33;;;;;;;20.38;12.70;;;6.80;99.90;;;;;;12390088;28;20137;-40
2023/04/15 07:57:36;;;;;;;20.90;12.90;;;6.80;99.90;;;;;;12373849;28;20046;-41
2023/04/15 08:03:38;;;;;;;18.85;12.50;;;6.90;99.90;;;;;;12372750;28;20050;-40
2023/04/15 08:09:40;;;;;;;19.27;12.18;;;6.90;99.90;;;;;;12375083;28;20422;-41
2023/04/15 08:15:42;;;;;;;21.17;13.38;;;7.00;99.90;;;;;;12385476;28;20072;-40
2023/04/15 08:21:44;;;;;;;19.08;11.57;;;7.00;99.90;;;;;;12373692;28;20054;-41
2023/04/15 08:27:46;;;;;;;17.27;10.77;;;7.00;99.90;;;;;;12380404;28;20055;-41
2023/04/15 08:33:51;;;;;;;17.17;11.27;;;7.00;99.90;;;;;;12382430;28;21376;-40
2023/04/15 08:39:53;;;;;;;15.27;10.15;;;7.10;99.90;;;;;;12385366;28;20230;-40
2023/04/15 08:45:57;;;;;;;18.38;11.48;;;7.10;99.90;;;;;;12377752;28;20063;-40
2023/04/15 08:52:00;;;;;;;18.10;11.23;;;7.10;99.90;;;;;;12376879;28;20046;-41
2023/04/15 08:58:03;;;;;;;14.52;9.30;;;7.10;99.90;;;;;;12365430;28;20499;-40
2023/04/15 09:04:06;;;;;;;15.95;9.48;;;7.20;99.90;;;;;;12396298;28;20065;-41
2023/04/15 09:10:09;;;;;;;15.03;9.90;;;7.10;99.90;;;;;;12389004;28;20038;-38
2023/04/15 09:16:14;;;;;;;16.27;8.77;;;7.20;99.90;;;;;;12401429;28;20183;-41
2023/04/15 09:22:16;;;;;;;13.73;8.52;;;7.30;99.90;;;;;;12391597;28;20072;-41
2023/04/15 09:28:24;;;;;;;13.07;7.45;;;7.40;99.90;;;;;;12381321;28;20447;-40
2023/04/15 09:34:35;;;;;;;9.73;6.18;;;7.50;99.90;;;;;;12398950;28;20065;-40
2023/04/15 09:40:40;;;;;;;9.82;6.60;;;7.50;99.90;;;;;;12402056;28;20046;-41
2023/04/15 09:46:43;;;;;;;8.85;6.13;;;7.60;99.90;;;;;;12393577;28;20543;-41
2023/04/15 09:52:46;;;;;;;8.93;5.95;;;7.60;99.90;;;;;;12383697;28;20050;-40
2023/04/15 09:58:55;;;;;;;10.35;6.68;;;7.60;99.90;;;;;;12391798;28;20050;-41
2023/04/15 10:04:58;;;;;;;10.15;6.30;;;7.60;99.90;;;;;;12389907;28;20506;-40
2023/04/15 10:11:01;;;;;;;9.95;6.63;;;7.70;99.90;;;;;;12381123;28;20707;-41
2023/04/15 10:17:04;;;;;;;9.20;6.60;;;7.70;99.90;;;;;;12409770;28;20053;-41
2023/04/15 10:23:08;;;;;;;9.43;6.55;;;7.70;99.90;;;;;;12368061;28;20509;-41
2023/04/15 10:29:13;;;;;;;10.48;6.97;;;7.80;99.90;;;;;;12385920;28;20050;-40
2023/04/15 10:35:16;;;;;;;10.70;6.88;;;7.80;99.90;;;;;;12382202;28;20054;-42
2023/04/15 10:41:30;;;;;;;9.43;6.75;;;7.90;99.90;;;;;;12374029;28;20068;-41
2023/04/15 10:47:32;;;;;;;9.32;6.63;;;7.90;99.90;;;;;;12388128;28;20054;-40
2023/04/15 10:53:36;;;;;;;9.77;6.63;;;7.90;99.90;;;;;;12407032;28;20046;-41
2023/04/15 11:00:03;;;;;;;11.32;6.70;;;7.90;99.90;;;;;;12385531;28;20509;-41
2023/04/15 11:06:05;;;;;;;7.38;6.00;;;8.00;99.90;;;;;;12379035;28;20089;-40
2023/04/15 11:12:09;;;;;;;8.57;5.68;;;8.10;99.90;;;;;;12370475;28;20042;-41
2023/04/15 11:18:23;;;;;;;7.43;5.20;;;8.10;99.90;;;;;;12370379;28;20480;-40
2023/04/15 11:24:27;;;;;;;7.80;4.85;;;8.10;99.90;;;;;;12397727;28;20073;-41
2023/04/15 11:30:31;;;;;;;;;;;8.20;99.90;;;;;;12382366;28;20046;-42
2023/04/15 11:36:33;;;;;;;6.60;4.70;;;8.10;99.90;;;;;;12381802;28;20013;-40
2023/04/15 11:42:35;;;;;;;5.07;3.60;;;8.20;99.90;;;;;;12400011;28;20043;-41
2023/04/15 11:48:50;;;;;;;4.65;3.30;;;8.20;99.90;;;;;;12385861;28;20049;-41
2023/04/15 11:55:00;;;;;;;4.63;3.35;;;8.20;99.90;;;;;;12364656;28;20049;-40
2023/04/15 12:01:03;;;;;;;5.03;3.38;;;8.20;99.90;;;;;;12368427;28;20120;-41
2023/04/15 12:07:06;;;;;;;4.88;3.20;;;8.20;99.90;;;;;;12359378;28;20050;-41
2023/04/15 12:13:09;;;;;;;6.65;4.07;;;8.20;99.90;;;;;;12359315;28;20141;-41
2023/04/15 12:19:13;;;;;;;5.43;3.88;;;8.30;99.90;;;;;;12357165;28;20058;-41
2023/04/15 12:25:15;;;;;;;5.07;4.10;;;8.20;99.90;;;;;;12387546;28;20185;-41
2023/04/15 12:31:16;;;;;;;5.75;4.50;;;8.20;99.90;;;;;;12376068;28;20093;-41
2023/04/15 12:37:19;;;;;;;6.43;5.05;;;8.30;99.90;;;;;;12396181;28;20062;-41
2023/04/15 12:43:20;;;;;;;8.77;6.38;;;8.20;99.90;;;;;;12386110;28;20085;-41
2023/04/15 12:49:23;;;;;;;9.43;7.00;;;8.30;99.90;;;;;;12371677;28;20051;-41
2023/04/15 12:55:25;;;;;;;8.73;6.25;;;8.30;99.90;;;;;;12353711;28;20125;-39
2023/04/15 13:01:27;;;;;;;9.70;6.35;;;8.30;99.90;;;;;;12374110;28;20058;-40
2023/04/15 13:07:29;;;;;;;8.73;6.45;;;8.40;99.90;;;;;;12379015;28;20112;-40
2023/04/15 13:13:31;;;;;;;11.18;6.65;;;8.40;99.90;;;;;;12392796;28;20078;-40
2023/04/15 13:19:33;;;;;;;10.20;7.30;;;8.30;99.90;;;;;;12358056;28;20463;-39
2023/04/15 13:25:34;;;;;;;11.43;8.10;;;8.40;99.90;;;;;;12369913;28;20076;-40
2023/04/15 13:31:36;;;;;;;12.50;8.48;;;8.30;99.90;;;;;;12374229;28;20097;-40
2023/04/15 13:37:38;;;;;;;12.48;9.38;;;8.40;99.90;;;;;;12353812;28;20423;-41
2023/04/15 13:43:40;;;;;;;18.25;10.48;;;8.40;99.90;;;;;;12391637;28;20045;-40
2023/04/15 13:49:43;;;;;;;15.05;10.07;;;8.40;99.90;;;;;;12371590;28;20510;-40
2023/04/15 13:55:45;;;;;;;16.73;11.45;;;8.40;99.90;;;;;;12385046;28;20939;-41
2023/04/15 14:01:47;;;;;;;17.98;11.95;;;8.40;99.90;;;;;;12389058;28;20189;-42
2023/04/15 14:07:49;;;;;;;18.02;12.45;;;8.50;99.90;;;;;;12409808;28;20046;-39
2023/04/15 14:13:51;;;;;;;23.83;12.68;;;8.50;99.90;;;;;;12382421;28;20066;-40
2023/04/15 14:19:53;;;;;;;23.98;14.85;;;8.50;99.90;;;;;;12394810;28;20505;-40
2023/04/15 14:25:55;;;;;;;24.58;15.75;;;8.60;99.90;;;;;;12402840;28;20567;-41
2023/04/15 14:31:57;;;;;;;24.58;15.23;;;8.60;99.90;;;;;;12386331;28;20054;-41
2023/04/15 14:38:12;;;;;;;25.52;15.88;;;8.60;99.90;;;;;;12396297;28;20061;-41
2023/04/15 14:44:14;;;;;;;28.55;16.63;;;8.60;99.90;;;;;;12395770;28;20517;-41
2023/04/15 14:50:16;;;;;;;29.23;17.55;;;8.60;99.90;;;;;;12396448;28;20060;-40
2023/04/15 14:56:25;;;;;;;31.48;18.30;;;8.60;99.90;;;;;;12360465;28;20058;-40
2023/04/15 15:02:27;;;;;;;30.90;18.45;;;8.70;99.90;;;;;;12386919;28;20188;-40
2023/04/15 15:08:40;;;;;;;32.10;17.57;;;8.70;99.90;;;;;;12395576;28;20038;-40
2023/04/15 15:14:42;;;;;;;38.10;19.50;;;8.70;99.90;;;;;;12379722;28;20047;-39
2023/04/15 15:20:44;;;;;;;35.33;19.38;;;8.60;99.90;;;;;;12386806;28;20093;-40
2023/04/15 15:26:46;;;;;;;39.33;20.00;;;8.80;99.90;;;;;;12374917;28;20055;-40
2023/04/15 15:32:48;;;;;;;36.38;20.30;;;8.80;99.90;;;;;;12376208;28;20043;-41
2023/04/15 15:38:51;;;;;;;41.05;20.73;;;8.80;99.90;;;;;;12366246;28;20051;-40
2023/04/15 15:44:52;;;;;;;41.13;21.83;;;8.80;99.90;;;;;;12370835;28;20057;-41
2023/04/15 15:50:54;;;;;;;38.28;20.73;;;8.80;99.90;;;;;;12406859;28;20053;-41
2023/04/15 15:56:56;;;;;;;43.67;21.75;;;8.90;99.90;;;;;;12379855;28;20053;-41
2023/04/15 16:17:36;;;;;;;37.20;20.63;;;9.10;99.90;;;;;;12455632;28;19936;-82
2023/04/15 16:23:38;;;;;;;37.50;21.60;;;9.10;99.90;;;;;;12442587;28;20038;-83
2023/04/15 16:50:32;;;;;;;47.63;23.35;;;9.00;99.90;;;;;;10706893;26;20267;-37
2023/04/15 16:56:34;;;;;;;43.97;23.27;;;9.10;99.90;;;;;;12412580;28;20070;-37
2023/04/15 17:02:36;;;;;;;38.88;22.40;;;9.00;99.90;;;;;;12450160;23;20054;-82
2023/04/15 17:08:39;;;;;;;42.47;22.80;;;9.00;99.90;;;;;;12478673;28;20086;-83
2023/04/15 17:14:40;;;;;;;43.00;23.52;;;9.10;99.90;;;;;;12501210;28;20148;-83
2023/04/15 17:20:42;;;;;;;41.53;22.13;;;9.10;99.90;;;;;;12485245;28;20073;-83
2023/04/15 17:26:45;;;;;;;45.05;22.25;;;9.10;99.90;;;;;;12502489;28;20057;-83
2023/04/15 17:32:47;;;;;;;48.50;23.63;;;9.00;99.90;;;;;;12491988;28;20079;-83
2023/04/15 17:38:56;;;;;;;41.75;23.73;;;9.00;99.90;;;;;;12516056;28;20114;-83
2023/04/15 17:45:05;;;;;;;53.05;24.83;;;9.00;99.90;;;;;;12502764;28;20076;-83
2023/04/15 17:51:14;;;;;;;51.28;24.88;;;8.90;99.90;;;;;;12509402;28;20064;-83
2023/04/15 17:57:24;;;;;;;45.35;24.55;;;9.00;99.90;;;;;;12518385;28;20057;-83
2023/04/15 18:03:32;;;;;;;47.90;25.25;;;9.00;99.90;;;;;;12501774;28;20052;-83
2023/04/15 18:09:43;;;;;;;53.33;27.65;;;9.00;99.90;;;;;;12498621;28;20065;-83
2023/04/15 18:15:51;;;;;;;57.28;27.15;;;9.00;99.90;;;;;;12528871;28;20052;-83
2023/04/15 18:21:59;;;;;;;62.72;28.63;;;9.00;99.90;;;;;;12514424;28;20132;-83
2023/04/15 18:28:09;;;;;;;58.20;28.08;;;8.90;99.90;;;;;;12512095;28;20053;-82
2023/04/15 18:34:17;;;;;;;56.47;28.02;;;9.00;99.90;;;;;;12499092;28;20084;-82
2023/04/15 18:40:26;;;;;;;57.70;29.13;;;9.00;99.90;;;;;;12515229;28;20045;-82
2023/04/15 18:46:35;;;;;;;52.75;28.67;;;9.00;99.90;;;;;;12504558;28;20094;-82
2023/04/15 18:52:44;;;;;;;54.50;28.38;;;8.90;99.90;;;;;;12496523;28;20068;-82
2023/04/15 18:58:52;;;;;;;52.63;29.15;;;8.90;99.90;;;;;;12495274;28;20057;-82
2023/04/15 19:05:27;;;;;;;63.15;30.33;;;8.90;99.90;;;;;;12499654;28;20563;-82
2023/04/15 19:11:36;;;;;;;67.22;29.77;;;8.90;99.90;;;;;;12512538;28;20128;-82
2023/04/15 19:17:44;;;;;;;62.53;29.05;;;8.90;99.90;;;;;;12520830;28;20082;-82
2023/04/15 19:23:56;;;;;;;61.13;29.48;;;8.90;99.90;;;;;;12496414;28;20053;-82
2023/04/15 19:30:06;;;;;;;66.32;32.80;;;8.90;99.90;;;;;;12498958;28;20064;-82
2023/04/15 19:36:16;;;;;;;68.82;31.15;;;8.90;99.90;;;;;;12515211;28;20075;-82
2023/04/15 19:42:25;;;;;;;65.93;31.05;;;8.90;99.90;;;;;;12502325;28;20056;-82
2023/04/15 19:48:40;;;;;;;69.15;32.97;;;9.00;99.90;;;;;;12515328;28;20065;-82
2023/04/15 19:54:48;;;;;;;71.45;34.58;;;9.00;99.90;;;;;;12506926;28;20046;-82
2023/04/15 20:01:04;;;;;;;72.90;35.13;;;9.00;99.90;;;;;;12492857;28;20052;-82
2023/04/15 20:07:12;;;;;;;68.78;36.60;;;9.00;99.90;;;;;;12513635;28;20049;-82
2023/04/15 20:13:21;;;;;;;64.53;36.17;;;9.00;99.90;;;;;;12509563;28;20049;-82
2023/04/15 20:19:30;;;;;;;64.55;33.35;;;9.00;99.90;;;;;;12489706;28;20053;-82
2023/04/15 20:25:40;;;;;;;67.65;34.40;;;9.10;99.90;;;;;;12515499;28;20100;-82
2023/04/15 20:31:49;;;;;;;71.75;37.05;;;9.10;99.90;;;;;;12496155;28;20497;-82
2023/04/15 20:37:58;;;;;;;68.22;35.58;;;9.10;99.90;;;;;;12498403;28;20462;-82
2023/04/15 20:44:06;;;;;;;65.43;35.42;;;9.00;99.90;;;;;;12490243;28;20109;-82
2023/04/15 20:50:15;;;;;;;66.30;37.10;;;9.00;99.90;;;;;;12499341;28;20061;-82
2023/04/15 20:56:23;;;;;;;64.10;34.67;;;9.10;99.90;;;;;;12511371;28;20460;-82
2023/04/15 21:02:38;;;;;;;62.80;35.30;;;9.00;99.90;;;;;;12514477;28;20060;-82
2023/04/15 21:08:46;;;;;;;;;;;9.00;99.90;;;;;;12497408;28;20401;-82
2023/04/15 21:14:54;;;;;;;62.92;34.95;;;9.00;99.90;;;;;;12498315;28;20261;-82
2023/04/15 21:21:02;;;;;;;56.47;34.35;;;9.00;99.90;;;;;;12505995;28;20045;-82
2023/04/15 21:27:11;;;;;;;59.30;35.15;;;9.00;99.90;;;;;;12526498;28;20053;-82
2023/04/15 21:33:19;;;;;;;63.92;36.13;;;9.00;99.90;;;;;;12500642;28;20504;-82
2023/04/15 21:39:27;;;;;;;62.80;36.83;;;9.00;99.90;;;;;;12513487;28;20486;-82
2023/04/15 21:45:38;;;;;;;58.72;36.40;;;9.00;99.90;;;;;;12514579;28;20107;-83
2023/04/15 21:52:06;;;;;;;60.80;36.95;;;9.00;99.90;;;;;;12489686;28;20056;-83
2023/04/15 21:58:15;;;;;;;56.55;36.67;;;9.00;99.90;;;;;;12495332;28;20057;-82
2023/04/15 22:04:30;;;;;;;56.00;35.75;;;9.00;99.90;;;;;;12520581;28;20489;-82
2023/04/15 22:10:38;;;;;;;57.05;34.40;;;9.10;99.90;;;;;;12513291;28;20192;-82
2023/04/15 22:16:46;;;;;;;51.63;33.50;;;9.10;99.90;;;;;;12519283;28;20053;-82
2023/04/15 22:22:54;;;;;;;48.05;32.70;;;9.10;99.90;;;;;;12515794;28;20049;-82
2023/04/15 22:29:02;;;;;;;49.50;32.60;;;9.10;99.90;;;;;;12510012;28;20049;-82
2023/04/15 22:35:11;;;;;;;51.05;32.90;;;9.20;99.90;;;;;;12520981;28;20056;-82
2023/04/15 22:41:19;;;;;;;49.80;33.03;;;9.10;99.90;;;;;;12511683;28;20104;-82
2023/04/15 22:47:27;;;;;;;55.83;34.20;;;9.10;99.90;;;;;;12488561;28;20049;-82
2023/04/15 22:53:35;;;;;;;51.10;33.08;;;9.10;99.90;;;;;;12501458;28;20949;-82
2023/04/15 22:59:44;;;;;;;52.83;34.53;;;9.10;99.90;;;;;;12519606;28;20424;-82
2023/04/15 23:05:59;;;;;;;51.78;33.67;;;9.10;99.90;;;;;;12495629;28;20049;-83
2023/04/15 23:12:14;;;;;;;49.67;32.58;;;9.10;99.90;;;;;;12487883;28;20049;-82
2023/04/15 23:18:22;;;;;;;46.78;31.70;;;9.00;99.90;;;;;;12506312;28;20134;-83
2023/04/15 23:24:30;;;;;;;47.42;32.78;;;9.00;99.90;;;;;;12486123;28;20144;-82
2023/04/15 23:30:38;;;;;;;50.22;32.55;;;9.10;99.90;;;;;;12513595;28;20045;-82
2023/04/15 23:36:46;;;;;;;45.75;32.05;;;9.10;99.90;;;;;;12500505;28;20099;-83
2023/04/15 23:42:54;;;;;;;43.38;31.05;;;9.00;99.90;;;;;;12506275;28;20504;-83
2023/04/15 23:49:02;;;;;;;46.47;31.30;;;9.10;99.90;;;;;;12496262;28;20533;-82
2023/04/15 23:55:11;;;;;;;45.38;30.52;;;9.10;99.90;;;;;;12511041;28;20140;-82
